ADDS METAR Data INFO
IDs: Format: Raw Decoded Include TAF

Data at: 0718 UTC 19 Oct 2017

KSNH 190655Z AUTO 00000KT 6SM BR CLR 07/07 A3021 RMK A01
KSNH 190635Z AUTO 00000KT 9SM CLR 07/06 A3021 RMK A01
KSNH 190615Z AUTO 00000KT 10SM CLR 08/07 A3021 RMK A01
KSNH 190555Z AUTO 00000KT 10SM CLR 08/07 A3021 RMK A01
KSNH 190535Z AUTO 00000KT 10SM CLR 08/08 A3020 RMK A01
KSNH 190515Z AUTO 18003KT 10SM CLR 09/08 A3021 RMK A01
KSNH 190455Z AUTO 17004KT 9SM CLR 09/08 A3021 RMK A01
KSNH 190435Z AUTO 18004KT 10SM CLR 10/08 A3022 RMK A01
KSNH 190415Z AUTO 00000KT 10SM CLR 08/08 A3022 RMK A01
KSNH 190355Z AUTO 00000KT 9SM CLR 08/08 A3022 RMK A01
KSNH 190335Z AUTO 00000KT 10SM CLR 08/08 A3023 RMK A01
KSNH 190315Z AUTO 00000KT 5SM BR CLR 09/08 A3023 RMK A01
KSNH 190255Z AUTO 00000KT 8SM CLR 09/09 A3023 RMK A01
KSNH 190235Z AUTO 00000KT 9SM CLR 09/09 A3023 RMK A01
KSNH 190215Z AUTO 00000KT 10SM CLR 10/09 A3022 RMK A01
KSNH 190155Z AUTO 00000KT 9SM CLR 10/10 A3022 RMK A01
KSNH 190135Z AUTO 00000KT 9SM SCT022 11/10 A3022 RMK A01
KSNH 190115Z AUTO 00000KT 5SM BR OVC024 11/11 A3022 RMK A01
KSNH 190055Z AUTO 00000KT 8SM OVC024 11/11 A3022 RMK A01
KSNH 190035Z AUTO 00000KT 6SM BR SCT017 OVC025 12/11 A3022 RMK A01
KSNH 190015Z AUTO 00000KT 9SM BKN017 OVC026 12/11 A3022 RMK A01
KSNH 182355Z AUTO 00000KT 8SM SCT025 SCT030 13/12 A3021 RMK A01
KSNH 182335Z AUTO 00000KT 6SM HZ CLR 15/12 A3020 RMK A01
KSNH 182315Z AUTO 00000KT 10SM CLR 16/12 A3020 RMK A01
KSNH 182255Z AUTO 00000KT 10SM CLR 19/11 A3020 RMK A01
KSNH 182235Z AUTO 21004KT 5SM HZ CLR 22/08 A3020 RMK A01
KSNH 182215Z AUTO 20006KT 6SM HZ CLR 22/08 A3020 RMK A01
KSNH 182155Z AUTO 14004KT 10SM CLR 22/07 A3020 RMK A01
KSNH 182135Z AUTO 22005KT 9SM CLR 23/08 A3020 RMK A01
KSNH 182115Z AUTO VRB05KT 10SM CLR 23/07 A3020 RMK A01
KSNH 182055Z AUTO 20008KT 10SM CLR 23/07 A3020 RMK A01
KSNH 182035Z AUTO VRB05G14KT 10SM CLR 23/08 A3021 RMK A01
KSNH 182015Z AUTO 21007KT 8SM CLR 23/08 A3021 RMK A01
KSNH 181955Z AUTO 19007KT 7SM CLR 22/08 A3021 RMK A01
KSNH 181935Z AUTO 20006KT 10SM CLR 23/07 A3022 RMK A01
KSNH 181915Z AUTO VRB06G12KT 10SM CLR 22/08 A3023 RMK A01
KSNH 181855Z AUTO VRB04G10KT 10SM CLR 22/07 A3024 RMK A01
KSNH 181835Z AUTO VRB06KT 10SM CLR 21/07 A3025 RMK A01
KSNH 181815Z AUTO VRB05G11KT 10SM CLR 21/08 A3026 RMK A01
KSNH 181755Z AUTO VRB04G10KT 10SM CLR 21/08 A3027 RMK A01
KSNH 181735Z AUTO VRB04KT 10SM CLR 20/08 A3028 RMK A01
KSNH 181715Z AUTO 18006KT 10SM CLR 20/08 A3029 RMK A01
KSNH 181655Z AUTO 19006KT 10SM CLR 20/08 A3030 RMK A01
KSNH 181635Z AUTO 16007G12KT 10SM CLR 20/08 A3030 RMK A01
KSNH 181615Z AUTO 20009KT 10SM CLR 20/08 A3030 RMK A01
KSNH 181555Z AUTO 17009G15KT 140V200 10SM CLR 19/08 A3031 RMK A01
KSNH 181535Z AUTO 20009KT 10SM CLR 18/08 A3031 RMK A01
KSNH 181515Z AUTO 17009KT 10SM CLR 17/08 A3031 RMK A01
KSNH 181455Z AUTO 16006KT 10SM CLR 16/09 A3031 RMK A01
KSNH 181435Z AUTO 15004KT 10SM CLR 14/09 A3031 RMK A01
KSNH 181415Z AUTO 17004KT 10SM CLR 13/09 A3031 RMK A01
KSNH 181355Z AUTO 18003KT 10SM CLR 11/08 A3031 RMK A01
KSNH 181335Z AUTO 00000KT 10SM CLR 09/08 A3030 RMK A01
KSNH 181315Z AUTO 00000KT 10SM CLR 07/06 A3030 RMK A01
KSNH 181255Z AUTO 00000KT 10SM CLR 05/05 A3029 RMK A01
KSNH 181235Z AUTO 00000KT 10SM CLR 04/04 A3028 RMK A01
KSNH 181215Z AUTO 00000KT 10SM CLR 03/03 A3028 RMK A01
KSNH 181155Z AUTO 00000KT 10SM CLR 04/04 A3027 RMK A01
KSNH 181135Z AUTO 00000KT 10SM CLR 03/03 A3027 RMK A01
KSNH 181115Z AUTO 00000KT 10SM CLR 04/04 A3027 RMK A01
KSNH 181055Z AUTO 00000KT 10SM CLR 04/04 A3027 RMK A01
KSNH 181035Z AUTO 00000KT 10SM CLR 04/04 A3026 RMK A01
KSNH 181015Z AUTO 00000KT 10SM CLR 04/04 A3026 RMK A01
KSNH 180955Z AUTO 00000KT 10SM CLR 03/03 A3025 RMK A01
KSNH 180935Z AUTO 00000KT 10SM CLR 04/04 A3024 RMK A01
KSNH 180915Z AUTO 00000KT 10SM CLR 04/04 A3024 RMK A01
KSNH 180855Z AUTO 00000KT 10SM CLR 04/04 A3024 RMK A01
KSNH 180835Z AUTO 00000KT 10SM CLR 05/05 A3024 RMK A01
KSNH 180815Z AUTO 00000KT 10SM CLR 05/05 A3024 RMK A01
KSNH 180755Z AUTO 00000KT 10SM CLR 04/04 A3024 RMK A01
KSNH 180735Z AUTO 00000KT 10SM CLR 05/05 A3025 RMK A01
KSNH 180715Z AUTO 00000KT 10SM CLR 05/05 A3025 RMK A01
KSNH 180655Z AUTO 00000KT 10SM CLR 05/05 A3024 RMK A01
KSNH 180635Z AUTO 00000KT 10SM CLR 06/05 A3024 RMK A01
KSNH 180615Z AUTO 00000KT 10SM CLR 05/05 A3024 RMK A01
KSNH 180555Z AUTO 00000KT 10SM CLR 06/06 A3024 RMK A01
KSNH 180535Z AUTO 00000KT 10SM CLR 06/06 A3024 RMK A01
KSNH 180515Z AUTO 00000KT 10SM CLR 07/06 A3024 RMK A01
KSNH 180455Z AUTO 00000KT 10SM CLR 07/07 A3025 RMK A01
KSNH 180435Z AUTO 00000KT 10SM CLR 07/07 A3025 RMK A01
KSNH 180415Z AUTO 00000KT 10SM CLR 07/07 A3025 RMK A01
KSNH 180355Z AUTO 00000KT 10SM CLR 08/08 A3025 RMK A01
KSNH 180335Z AUTO 00000KT 10SM CLR 08/08 A3026 RMK A01
KSNH 180315Z AUTO 00000KT 10SM CLR 08/08 A3025 RMK A01
KSNH 180255Z AUTO 00000KT 10SM CLR 08/08 A3025 RMK A01
KSNH 180235Z AUTO 00000KT 10SM CLR 09/09 A3025 RMK A01
KSNH 180215Z AUTO 00000KT 10SM CLR 09/09 A3025 RMK A01
KSNH 180155Z AUTO 00000KT 10SM CLR 10/09 A3025 RMK A01
KSNH 180135Z AUTO 00000KT 10SM CLR 10/10 A3024 RMK A01
KSNH 180115Z AUTO 00000KT 10SM CLR 10/10 A3024 RMK A01
KSNH 180055Z AUTO 00000KT 10SM CLR 11/10 A3024 RMK A01
KSNH 180035Z AUTO 00000KT 10SM CLR 12/11 A3023 RMK A01
KSNH 180015Z AUTO 00000KT 10SM CLR 13/11 A3023 RMK A01
KSNH 172355Z AUTO 00000KT 10SM CLR 13/12 A3023 RMK A01
KSNH 172335Z AUTO 00000KT 14/12 A3022 RMK A01
KSNH 172315Z AUTO 00000KT 10SM CLR 16/12 A3022 RMK A01
KSNH 172255Z AUTO 00000KT 10SM CLR 17/12 A3022 RMK A01
KSNH 172235Z AUTO 00000KT 10SM CLR 19/11 A3022 RMK A01
KSNH 172215Z AUTO 00000KT 10SM CLR 20/08 A3022 RMK A01
KSNH 172155Z AUTO 00000KT 10SM CLR 21/06 A3021 RMK A01
KSNH 172135Z AUTO 00000KT 10SM CLR 21/06 A3022 RMK A01
KSNH 172115Z AUTO 00000KT 10SM CLR 21/06 A3022 RMK A01
KSNH 172055Z AUTO 14004KT 10SM CLR 21/06 A3023 RMK A01
KSNH 172035Z AUTO 00000KT 10SM CLR 22/05 A3023 RMK A01
KSNH 172015Z AUTO 00000KT 10SM CLR 21/06 A3023 RMK A01
KSNH 171955Z AUTO 23004KT 10SM CLR 21/05 A3024 RMK A01
KSNH 171935Z AUTO 00000KT 10SM CLR 21/05 A3025 RMK A01